Time,TemperatureF,DewpointF,PressureIn,WindDirection,WindDirectionDegrees,WindSpeedMPH,WindSpeedGustMPH,Humidity,HourlyPrecipIn,Conditions,Clouds,dailyrainin,SoftwareType,DateUTC
2013-04-15 00:02:00,42.0,39.0,30.00,ENE,77,0.0,3.0,89,0.02,,,0.15,,2013-04-15 07:02:00,
2013-04-15 00:42:00,42.0,39.0,30.00,East,84,0.0,5.0,89,0.02,,,0.15,,2013-04-15 07:42:00,
2013-04-15 00:53:00,42.0,39.0,30.01,NNE,28,1.0,10.0,89,0.01,,,0.15,,2013-04-15 07:53:00,
2013-04-15 01:02:00,43.0,40.0,30.01,ENE,63,2.0,6.0,89,0.02,,,0.17,,2013-04-15 08:02:00,
2013-04-15 01:12:00,43.0,40.0,30.01,ENE,63,2.0,6.0,89,0.02,,,0.17,,2013-04-15 08:12:00,
2013-04-15 01:21:00,42.0,39.0,30.01,ENE,58,2.0,6.0,90,0.03,,,0.18,,2013-04-15 08:21:00,
2013-04-15 01:32:00,42.0,39.0,30.01,NE,48,3.0,8.0,90,0.05,,,0.20,,2013-04-15 08:32:00,
2013-04-15 01:42:00,42.0,39.0,30.01,NE,48,3.0,8.0,90,0.05,,,0.20,,2013-04-15 08:42:00,
2013-04-15 01:52:00,42.0,39.0,30.01,ENE,70,7.0,11.0,90,0.05,,,0.20,,2013-04-15 08:52:00,
2013-04-15 02:02:00,42.0,39.0,30.01,NNE,31,6.0,11.0,90,0.03,,,0.20,,2013-04-15 09:02:00,
2013-04-15 02:12:00,42.0,39.0,30.01,NNE,31,6.0,11.0,90,0.03,,,0.20,,2013-04-15 09:12:00,
2013-04-15 02:22:00,42.0,40.0,30.01,North,351,12.0,17.0,91,0.02,,,0.19,,2013-04-15 09:22:00,
2013-04-15 02:32:00,43.0,41.0,30.00,NNW,343,17.0,19.0,91,0.02,,,0.21,,2013-04-15 09:32:00,
2013-04-15 02:42:00,43.0,41.0,30.00,NNW,343,17.0,19.0,91,0.02,,,0.21,,2013-04-15 09:42:00,
2013-04-15 02:53:00,42.0,39.0,30.00,North,6,12.0,16.0,90,0.07,,,0.26,,2013-04-15 09:53:00,
2013-04-15 03:02:00,41.0,38.0,30.00,ENE,72,5.0,12.0,90,0.10,,,0.28,,2013-04-15 10:02:00,
2013-04-15 03:12:00,41.0,38.0,30.00,ENE,72,5.0,12.0,90,0.10,,,0.28,,2013-04-15 10:12:00,
2013-04-15 03:23:00,40.0,37.0,30.00,East,79,4.0,14.0,90,0.10,,,0.28,,2013-04-15 10:23:00,
2013-04-15 03:32:00,40.0,37.0,29.99,ESE,112,6.0,10.0,90,0.08,,,0.28,,2013-04-15 10:32:00,
2013-04-15 03:42:00,40.0,37.0,29.99,ESE,112,6.0,10.0,90,0.08,,,0.28,,2013-04-15 10:42:00,
2013-04-15 03:52:00,40.0,37.0,30.00,East,84,3.0,8.0,90,0.03,,,0.28,,2013-04-15 10:52:00,
2013-04-15 04:02:00,40.0,38.0,30.00,ESE,114,4.0,8.0,91,0.00,,,0.28,,2013-04-15 11:02:00,
2013-04-15 04:12:00,40.0,38.0,30.00,ESE,114,4.0,8.0,91,0.00,,,0.28,,2013-04-15 11:12:00,
2013-04-15 04:22:00,40.0,38.0,30.00,East,88,4.0,7.0,91,0.00,,,0.28,,2013-04-15 11:22:00,
2013-04-15 04:32:00,40.0,38.0,30.00,ENE,57,5.0,8.0,91,0.00,,,0.28,,2013-04-15 11:32:00,
2013-04-15 04:42:00,40.0,38.0,30.00,ENE,57,5.0,8.0,91,0.00,,,0.28,,2013-04-15 11:42:00,
2013-04-15 04:53:00,41.0,39.0,30.01,NNE,25,0.0,5.0,91,0.00,,,0.28,,2013-04-15 11:53:00,
2013-04-15 05:02:00,41.0,39.0,30.01,East,95,2.0,4.0,91,0.02,,,0.31,,2013-04-15 12:02:00,
2013-04-15 05:12:00,41.0,39.0,30.01,East,95,2.0,4.0,91,0.02,,,0.31,,2013-04-15 12:12:00,
2013-04-15 05:22:00,40.0,38.0,30.00,ENE,58,0.0,6.0,91,0.02,,,0.31,,2013-04-15 12:22:00,
2013-04-15 05:32:00,40.0,38.0,30.00,East,87,2.0,4.0,91,0.02,,,0.31,,2013-04-15 12:32:00,
2013-04-15 05:42:00,40.0,38.0,30.00,East,87,2.0,4.0,91,0.02,,,0.31,,2013-04-15 12:42:00,
2013-04-15 05:53:00,39.0,37.0,29.99,ENE,77,2.0,5.0,91,0.02,,,0.31,,2013-04-15 12:53:00,
2013-04-15 06:02:00,39.0,37.0,29.99,East,84,3.0,6.0,91,0.00,,,0.31,,2013-04-15 13:02:00,
2013-04-15 06:12:00,39.0,37.0,29.99,East,84,3.0,6.0,91,0.00,,,0.31,,2013-04-15 13:12:00,
2013-04-15 06:22:00,39.0,37.0,29.99,East,90,1.0,6.0,91,0.00,,,0.31,,2013-04-15 13:22:00,
2013-04-15 06:32:00,39.0,37.0,29.98,ESE,106,3.0,6.0,91,0.00,,,0.31,,2013-04-15 13:32:00,
2013-04-15 06:42:00,39.0,37.0,29.98,ESE,106,3.0,6.0,91,0.00,,,0.31,,2013-04-15 13:42:00,
2013-04-15 06:53:00,39.0,37.0,30.00,North,350,1.0,7.0,92,0.01,,,0.32,,2013-04-15 13:53:00,
2013-04-15 07:02:00,39.0,37.0,30.01,ENE,73,1.0,7.0,92,0.02,,,0.33,,2013-04-15 14:02:00,
2013-04-15 07:12:00,39.0,37.0,30.01,ENE,73,1.0,7.0,92,0.02,,,0.33,,2013-04-15 14:12:00,
2013-04-15 07:22:00,39.0,37.0,30.01,East,93,1.0,6.0,92,0.04,,,0.33,,2013-04-15 14:22:00,
2013-04-15 07:32:00,39.0,37.0,30.01,East,90,0.0,4.0,92,0.05,,,0.34,,2013-04-15 14:32:00,
2013-04-15 07:43:00,39.0,37.0,30.01,East,90,0.0,4.0,92,0.05,,,0.34,,2013-04-15 14:43:00,
2013-04-15 07:54:00,39.0,37.0,30.01,ESE,116,2.0,5.0,92,0.07,,,0.37,,2013-04-15 14:54:00,
2013-04-15 08:02:00,40.0,38.0,30.02,ENE,77,1.0,4.0,93,0.07,,,0.38,,2013-04-15 15:02:00,
2013-04-15 08:12:00,40.0,38.0,30.02,ENE,77,1.0,4.0,93,0.07,,,0.38,,2013-04-15 15:12:00,
2013-04-15 08:22:00,40.0,38.0,30.03,East,90,2.0,6.0,93,0.07,,,0.37,,2013-04-15 15:22:00,
2013-04-15 08:33:00,40.0,38.0,30.03,East,90,0.0,0.0,93,0.06,,,0.37,,2013-04-15 15:33:00,
2013-04-15 08:43:00,40.0,38.0,30.03,East,90,0.0,0.0,93,0.06,,,0.37,,2013-04-15 15:43:00,
2013-04-15 08:54:00,40.0,38.0,30.03,East,90,0.0,2.0,93,0.03,,,0.37,,2013-04-15 15:54:00,
2013-04-15 09:03:00,40.0,38.0,30.03,East,81,3.0,6.0,93,0.02,,,0.37,,2013-04-15 16:03:00,
2013-04-15 09:12:00,40.0,38.0,30.03,East,81,3.0,6.0,93,0.02,,,0.37,,2013-04-15 16:12:00,
2013-04-15 09:23:00,42.0,40.0,30.03,ESE,102,2.0,6.0,93,0.00,,,0.37,,2013-04-15 16:23:00,
2013-04-15 09:32:00,44.0,42.0,30.03,East,88,1.0,5.0,91,0.00,,,0.37,,2013-04-15 16:32:00,
2013-04-15 09:43:00,44.0,42.0,30.03,East,88,1.0,5.0,91,0.00,,,0.37,,2013-04-15 16:43:00,
2013-04-15 09:53:00,43.0,40.0,30.04,NNW,348,3.0,7.0,90,0.02,,,0.39,,2013-04-15 16:53:00,
2013-04-15 10:02:00,43.0,40.0,30.05,NNE,21,7.0,12.0,90,0.02,,,0.39,,2013-04-15 17:02:00,
2013-04-15 10:13:00,43.0,40.0,30.05,NNE,21,7.0,12.0,90,0.02,,,0.39,,2013-04-15 17:13:00,
2013-04-15 10:21:00,43.0,41.0,30.05,ENE,57,4.0,5.0,91,0.03,,,0.39,,2013-04-15 17:21:00,
2013-04-15 10:32:00,44.0,42.0,30.05,ENE,58,3.0,5.0,91,0.03,,,0.39,,2013-04-15 17:32:00,
2013-04-15 10:43:00,44.0,42.0,30.05,ENE,58,3.0,5.0,91,0.03,,,0.39,,2013-04-15 17:43:00,
2013-04-15 10:52:00,43.0,40.0,30.04,NNE,16,2.0,7.0,89,0.01,,,0.39,,2013-04-15 17:52:00,
2013-04-15 11:02:00,44.0,41.0,30.04,North,350,2.0,6.0,89,0.01,,,0.39,,2013-04-15 18:02:00,
2013-04-15 11:12:00,44.0,41.0,30.04,North,350,2.0,6.0,89,0.01,,,0.39,,2013-04-15 18:12:00,
2013-04-15 11:23:00,45.0,42.0,30.05,North,2,6.0,8.0,89,0.00,,,0.38,,2013-04-15 18:23:00,
2013-04-15 11:32:00,44.0,41.0,30.05,NNE,21,6.0,12.0,90,0.00,,,0.38,,2013-04-15 18:32:00,
2013-04-15 11:42:00,44.0,41.0,30.05,NNE,21,6.0,12.0,90,0.00,,,0.38,,2013-04-15 18:42:00,
2013-04-15 11:52:00,45.0,42.0,30.05,North,354,6.0,9.0,90,0.00,,,0.38,,2013-04-15 18:52:00,
2013-04-15 12:01:00,46.0,43.0,30.06,North,353,7.0,10.0,89,0.00,,,0.38,,2013-04-15 19:01:00,
2013-04-15 12:11:00,46.0,43.0,30.06,North,353,7.0,10.0,89,0.00,,,0.38,,2013-04-15 19:11:00,
2013-04-15 12:22:00,47.0,44.0,30.06,North,2,7.0,10.0,88,0.00,,,0.37,,2013-04-15 19:22:00,
2013-04-15 12:33:00,46.0,42.0,30.06,NNW,337,6.0,9.0,85,0.00,,,0.37,,2013-04-15 19:33:00,
2013-04-15 12:43:00,46.0,42.0,30.06,NNW,337,6.0,9.0,85,0.00,,,0.37,,2013-04-15 19:43:00,
2013-04-15 12:59:00,46.0,42.0,30.06,North,350,5.0,9.0,85,0.00,,,0.37,,2013-04-15 19:59:00,
2013-04-15 13:11:00,47.0,42.0,30.07,NNW,347,6.0,9.0,84,0.00,,,0.37,,2013-04-15 20:11:00,
2013-04-15 13:22:00,47.0,42.0,30.07,North,1,5.0,9.0,84,0.00,,,0.37,,2013-04-15 20:22:00,
2013-04-15 13:32:00,47.0,41.0,30.07,NNW,334,8.0,10.0,81,0.00,,,0.37,,2013-04-15 20:32:00,
2013-04-15 13:42:00,47.0,41.0,30.07,NNW,334,8.0,10.0,81,0.00,,,0.37,,2013-04-15 20:42:00,
2013-04-15 13:52:00,47.0,42.0,30.07,NNW,327,9.0,13.0,82,0.00,,,0.37,,2013-04-15 20:52:00,
2013-04-15 14:02:00,47.0,42.0,30.08,NNW,339,10.0,14.0,82,0.00,,,0.37,,2013-04-15 21:02:00,
2013-04-15 14:11:00,47.0,42.0,30.08,NNW,339,10.0,14.0,82,0.00,,,0.37,,2013-04-15 21:11:00,
2013-04-15 14:22:00,48.0,43.0,30.08,North,354,8.0,13.0,82,0.00,,,0.36,,2013-04-15 21:22:00,
2013-04-15 14:32:00,48.0,42.0,30.08,NNW,330,8.0,11.0,81,0.00,,,0.36,,2013-04-15 21:32:00,
2013-04-15 14:42:00,48.0,42.0,30.08,NNW,330,8.0,11.0,81,0.00,,,0.36,,2013-04-15 21:42:00,
2013-04-15 14:53:00,49.0,43.0,30.09,NNW,341,8.0,11.0,81,0.00,,,0.36,,2013-04-15 21:53:00,
2013-04-15 15:02:00,48.0,42.0,30.09,NNW,328,12.0,14.0,80,0.00,,,0.36,,2013-04-15 22:02:00,
2013-04-15 15:13:00,48.0,42.0,30.09,NNW,328,12.0,14.0,80,0.00,,,0.36,,2013-04-15 22:13:00,
2013-04-15 15:22:00,49.0,44.0,30.09,NNW,337,12.0,14.0,82,0.00,,,0.36,,2013-04-15 22:22:00,
2013-04-15 15:32:00,49.0,43.0,30.09,NNW,346,12.0,15.0,79,0.00,,,0.36,,2013-04-15 22:32:00,
2013-04-15 15:42:00,49.0,43.0,30.09,NNW,346,12.0,15.0,79,0.00,,,0.36,,2013-04-15 22:42:00,
2013-04-15 15:52:00,49.0,43.0,30.10,NNW,337,11.0,15.0,80,0.00,,,0.36,,2013-04-15 22:52:00,
2013-04-15 16:02:00,49.0,43.0,30.10,NNW,339,14.0,17.0,79,0.00,,,0.36,,2013-04-15 23:02:00,
2013-04-15 16:12:00,49.0,43.0,30.10,NNW,339,14.0,17.0,79,0.00,,,0.36,,2013-04-15 23:12:00,
2013-04-15 16:22:00,49.0,43.0,30.10,NNW,346,12.0,16.0,79,0.00,,,0.36,,2013-04-15 23:22:00,
2013-04-15 16:32:00,49.0,43.0,30.11,North,354,13.0,16.0,80,0.00,,,0.36,,2013-04-15 23:32:00,
2013-04-15 16:42:00,49.0,43.0,30.11,North,354,13.0,16.0,80,0.00,,,0.36,,2013-04-15 23:42:00,
2013-04-15 16:52:00,50.0,44.0,30.11,NNW,346,14.0,17.0,79,0.00,,,0.36,,2013-04-15 23:52:00,
2013-04-15 17:02:00,50.0,44.0,30.11,North,350,13.0,16.0,79,0.00,,,0.36,,2013-04-16 00:02:00,
2013-04-15 17:11:00,50.0,44.0,30.11,North,350,13.0,16.0,79,0.00,,,0.36,,2013-04-16 00:11:00,
2013-04-15 17:22:00,49.0,42.0,30.12,NNW,340,13.0,18.0,78,0.00,,,0.36,,2013-04-16 00:22:00,
2013-04-15 17:31:00,49.0,43.0,30.12,NNW,346,14.0,17.0,80,0.00,,,0.36,,2013-04-16 00:31:00,
2013-04-15 17:42:00,49.0,43.0,30.12,NNW,346,14.0,17.0,80,0.00,,,0.36,,2013-04-16 00:42:00,
2013-04-15 17:52:00,50.0,43.0,30.12,North,354,14.0,18.0,78,0.00,,,0.36,,2013-04-16 00:52:00,
2013-04-15 18:01:00,50.0,44.0,30.12,North,353,15.0,21.0,79,0.00,,,0.36,,2013-04-16 01:01:00,
2013-04-15 18:12:00,50.0,44.0,30.12,North,353,15.0,21.0,79,0.00,,,0.36,,2013-04-16 01:12:00,
2013-04-15 18:22:00,50.0,44.0,30.13,North,350,15.0,19.0,79,0.00,,,0.36,,2013-04-16 01:22:00,
2013-04-15 18:31:00,50.0,44.0,30.14,NNW,344,14.0,21.0,80,0.00,,,0.36,,2013-04-16 01:31:00,
2013-04-15 18:42:00,50.0,44.0,30.14,NNW,344,14.0,21.0,80,0.00,,,0.36,,2013-04-16 01:42:00,
2013-04-15 18:52:00,49.0,43.0,30.14,North,356,15.0,21.0,79,0.00,,,0.36,,2013-04-16 01:52:00,
2013-04-15 19:02:00,49.0,43.0,30.15,North,354,15.0,19.0,79,0.00,,,0.36,,2013-04-16 02:02:00,
2013-04-15 19:12:00,49.0,43.0,30.15,North,354,15.0,19.0,79,0.00,,,0.36,,2013-04-16 02:12:00,
2013-04-15 19:22:00,49.0,43.0,30.15,NNW,347,16.0,21.0,79,0.00,,,0.36,,2013-04-16 02:22:00,
2013-04-15 19:31:00,48.0,42.0,30.15,North,6,14.0,21.0,79,0.00,,,0.36,,2013-04-16 02:31:00,
2013-04-15 19:42:00,48.0,42.0,30.15,North,6,14.0,21.0,79,0.00,,,0.36,,2013-04-16 02:42:00,
2013-04-15 19:52:00,48.0,42.0,30.15,NNW,348,16.0,21.0,80,0.00,,,0.36,,2013-04-16 02:52:00,
2013-04-15 20:02:00,48.0,42.0,30.16,North,351,16.0,21.0,80,0.00,,,0.36,,2013-04-16 03:02:00,
2013-04-15 20:11:00,48.0,42.0,30.16,North,351,16.0,21.0,80,0.00,,,0.36,,2013-04-16 03:11:00,
2013-04-15 20:22:00,48.0,42.0,30.16,North,355,16.0,19.0,80,0.00,,,0.36,,2013-04-16 03:22:00,
2013-04-15 20:32:00,48.0,42.0,30.16,North,2,15.0,22.0,81,0.00,,,0.36,,2013-04-16 03:32:00,
2013-04-15 20:43:00,48.0,42.0,30.16,North,2,15.0,22.0,81,0.00,,,0.36,,2013-04-16 03:43:00,
2013-04-15 20:52:00,47.0,41.0,30.17,North,3,11.0,23.0,81,0.00,,,0.36,,2013-04-16 03:52:00,
2013-04-15 21:02:00,46.0,41.0,30.18,NNE,27,7.0,11.0,81,0.00,,,0.36,,2013-04-16 04:02:00,
2013-04-15 21:12:00,46.0,41.0,30.18,NNE,27,7.0,11.0,81,0.00,,,0.36,,2013-04-16 04:12:00,
2013-04-15 21:23:00,46.0,41.0,30.19,NNE,13,11.0,21.0,81,0.00,,,0.36,,2013-04-16 04:23:00,
2013-04-15 21:32:00,46.0,41.0,30.19,NE,36,6.0,11.0,81,0.00,,,0.36,,2013-04-16 04:32:00,
2013-04-15 21:42:00,46.0,41.0,30.19,NE,36,6.0,11.0,81,0.00,,,0.36,,2013-04-16 04:42:00,
2013-04-15 21:53:00,45.0,40.0,30.19,NNE,29,5.0,10.0,82,0.00,,,0.36,,2013-04-16 04:53:00,
2013-04-15 22:02:00,46.0,41.0,30.20,NNE,21,4.0,9.0,82,0.00,,,0.36,,2013-04-16 05:02:00,
2013-04-15 22:12:00,46.0,41.0,30.20,NNE,21,4.0,9.0,82,0.00,,,0.36,,2013-04-16 05:12:00,
2013-04-15 22:22:00,46.0,41.0,30.20,NE,49,5.0,10.0,83,0.00,,,0.34,,2013-04-16 05:22:00,
2013-04-15 22:32:00,45.0,40.0,30.21,NNE,20,3.0,8.0,83,0.00,,,0.34,,2013-04-16 05:32:00,
2013-04-15 22:42:00,45.0,40.0,30.21,NNE,20,3.0,8.0,83,0.00,,,0.34,,2013-04-16 05:42:00,
2013-04-15 22:52:00,45.0,40.0,30.21,NNE,26,3.0,6.0,83,0.00,,,0.34,,2013-04-16 05:52:00,
2013-04-15 23:02:00,45.0,40.0,30.21,NE,46,4.0,7.0,84,0.00,,,0.34,,2013-04-16 06:02:00,
2013-04-15 23:11:00,45.0,40.0,30.21,NE,46,4.0,7.0,84,0.00,,,0.34,,2013-04-16 06:11:00,
2013-04-15 23:21:00,45.0,40.0,30.21,NE,56,3.0,6.0,84,0.00,,,0.33,,2013-04-16 06:21:00,
2013-04-15 23:32:00,45.0,41.0,30.21,NE,38,4.0,7.0,85,0.00,,,0.33,,2013-04-16 06:32:00,
2013-04-15 23:42:00,45.0,41.0,30.21,NE,38,4.0,7.0,85,0.00,,,0.33,,2013-04-16 06:42:00,
2013-04-15 23:52:00,45.0,41.0,30.22,NNE,30,3.0,7.0,85,0.00,,,0.33,,2013-04-16 06:52:00,